Time;durP1;ratioP1;P1;durP2;ratioP2;P2;SDS_P1;SDS_P2;PMS_P1;PMS_P2;Temp;Humidity;BMP_temperature;BMP_pressure;BME280_temperature;BME280_humidity;BME280_pressure;Samples;Min_cycle;Max_cycle;Signal;HPM_P1;HPM_P2
2022/11/20 00:00:03;;;;;;;18.00;12.53;;;3.00;99.90;;;;;;6128515;23;20593;-50
2022/11/20 00:02:29;;;;;;;18.73;12.90;;;3.00;99.90;;;;;;6128890;23;20169;-49
2022/11/20 00:04:54;;;;;;;17.53;11.90;;;3.00;99.90;;;;;;6129069;23;20158;-48
2022/11/20 00:07:20;;;;;;;20.40;12.57;;;3.00;99.90;;;;;;6128672;23;20497;-48
2022/11/20 00:09:45;;;;;;;21.97;12.97;;;2.90;99.90;;;;;;6128568;23;20635;-48
2022/11/20 00:12:11;;;;;;;21.57;12.97;;;2.90;99.90;;;;;;6128646;23;20616;-49
2022/11/20 00:14:37;;;;;;;21.53;13.20;;;2.90;99.90;;;;;;6128788;23;20589;-48
2022/11/20 00:17:02;;;;;;;23.07;12.90;;;2.90;99.90;;;;;;6129077;23;20543;-48
2022/11/20 00:19:28;;;;;;;20.00;11.93;;;2.90;99.90;;;;;;6128871;23;20182;-47
2022/11/20 00:21:55;;;;;;;20.70;13.07;;;2.90;99.90;;;;;;6129101;23;20192;-50
2022/11/20 00:24:21;;;;;;;23.40;12.27;;;4.10;99.90;;;;;;6128839;23;20158;-48
2022/11/20 00:26:46;;;;;;;23.43;13.63;;;2.90;99.90;;;;;;6129031;23;20580;-48
2022/11/20 00:29:12;;;;;;;22.43;12.90;;;2.90;99.90;;;;;;6128882;23;20170;-48
2022/11/20 00:31:37;;;;;;;18.87;12.13;;;2.90;99.90;;;;;;6127577;23;20172;-49
2022/11/20 00:34:03;;;;;;;23.77;12.60;;;2.90;99.90;;;;;;6129010;23;20158;-48
2022/11/20 00:36:32;;;;;;;21.63;13.37;;;2.90;99.90;;;;;;6128552;23;20546;-49
2022/11/20 00:38:59;;;;;;;18.73;12.33;;;2.90;99.90;;;;;;6129141;23;20212;-49
2022/11/20 00:41:26;;;;;;;20.40;12.73;;;3.00;99.90;;;;;;6128863;23;20178;-49
2022/11/20 00:43:53;;;;;;;20.63;11.87;;;3.00;99.90;;;;;;6128470;23;20178;-48
2022/11/20 00:49:00;;;;;;;24.23;13.73;;;3.00;99.90;;;;;;6137867;23;20194;-45
2022/11/20 00:51:27;;;;;;;25.13;13.30;;;3.00;99.90;;;;;;6128029;23;20173;-45
2022/11/20 00:53:55;;;;;;;23.10;13.13;;;4.00;99.90;;;;;;6128615;23;20601;-45
2022/11/20 00:56:21;;;;;;;21.73;12.87;;;3.00;99.90;;;;;;6128184;23;20158;-45
2022/11/20 00:58:48;;;;;;;21.57;12.87;;;3.00;99.90;;;;;;6128013;23;20269;-46
2022/11/20 01:01:17;;;;;;;21.57;13.00;;;3.10;99.90;;;;;;6128531;23;20574;-46
2022/11/20 01:03:45;;;;;;;24.30;13.30;;;3.10;99.90;;;;;;6127887;23;20151;-45
2022/11/20 01:06:16;;;;;;;20.03;12.93;;;3.10;99.90;;;;;;6127953;23;20166;-47
2022/11/20 01:08:43;;;;;;;19.63;13.57;;;3.10;99.90;;;;;;6126778;23;20182;-47
2022/11/20 01:11:12;;;;;;;27.60;15.17;;;3.10;99.90;;;;;;6126539;23;20170;-47
2022/11/20 01:13:38;;;;;;;20.43;13.27;;;3.10;99.90;;;;;;6128124;23;20173;-46
2022/11/20 01:16:16;;;;;;;19.93;13.07;;;3.10;99.90;;;;;;6127899;23;20158;-45
2022/11/20 01:18:44;;;;;;;23.87;13.37;;;3.10;99.90;;;;;;6128919;23;20487;-47
2022/11/20 01:21:16;;;;;;;20.30;12.33;;;3.10;99.90;;;;;;6128405;23;20206;-47
2022/11/20 01:23:43;;;;;;;22.00;14.70;;;3.20;99.90;;;;;;6127595;23;20150;-46
2022/11/20 01:26:14;;;;;;;24.50;15.00;;;3.20;99.90;;;;;;6127565;23;20639;-45
2022/11/20 01:28:41;;;;;;;22.97;12.90;;;3.20;99.90;;;;;;6127778;23;20170;-45
2022/11/20 01:31:29;;;;;;;21.90;13.13;;;3.10;99.90;;;;;;6127632;23;20238;-46
2022/11/20 01:33:58;;;;;;;22.67;13.60;;;3.10;99.90;;;;;;6127182;23;20177;-43
2022/11/20 01:36:26;;;;;;;20.63;13.07;;;3.10;99.90;;;;;;6126330;23;20173;-43
2022/11/20 01:38:53;;;;;;;21.87;13.17;;;3.20;99.90;;;;;;6126702;23;20252;-40
2022/11/20 01:44:04;;;;;;;21.20;12.57;;;3.20;99.90;;;;;;6126857;23;20564;-41
2022/11/20 01:46:38;;;;;;;19.60;12.73;;;3.20;99.90;;;;;;6126749;23;20181;-41
2022/11/20 01:49:28;;;;;;;20.83;13.00;;;3.20;99.90;;;;;;6126477;23;20182;-41
2022/11/20 01:52:04;;;;;;;21.10;12.63;;;3.20;99.90;;;;;;6126651;23;20488;-42
2022/11/20 01:54:46;;;;;;;22.10;12.90;;;3.30;99.90;;;;;;6127225;23;20143;-41
2022/11/20 01:57:13;;;;;;;23.80;12.67;;;3.30;99.90;;;;;;6127066;23;20184;-39
2022/11/20 01:59:45;;;;;;;20.80;13.23;;;3.30;99.90;;;;;;6126564;23;20249;-41
2022/11/20 02:02:10;;;;;;;21.93;13.13;;;3.30;99.90;;;;;;6126663;23;20241;-40
2022/11/20 02:04:36;;;;;;;20.97;13.13;;;3.30;99.90;;;;;;6127255;23;20597;-43
2022/11/20 02:07:03;;;;;;;26.13;14.83;;;3.30;99.90;;;;;;6128669;23;20155;-42
2022/11/20 02:09:29;;;;;;;28.50;13.73;;;3.30;99.90;;;;;;6125739;23;20178;-42
2022/11/20 02:11:55;;;;;;;20.30;12.93;;;3.30;99.90;;;;;;6126979;23;20158;-43
2022/11/20 02:14:22;;;;;;;23.27;13.27;;;3.30;99.90;;;;;;6126502;23;20497;-40
2022/11/20 02:16:49;;;;;;;24.93;13.73;;;3.30;99.90;;;;;;6126531;23;20158;-42
2022/11/20 02:19:20;;;;;;;25.00;13.67;;;3.30;99.90;;;;;;6126096;23;20208;-42
2022/11/20 02:22:07;;;;;;;22.47;13.30;;;3.30;99.90;;;;;;6126014;23;20179;-42
2022/11/20 02:24:33;;;;;;;29.77;13.07;;;3.40;99.90;;;;;;6126051;23;20643;-40
2022/11/20 02:27:07;;;;;;;21.00;13.50;;;3.40;99.90;;;;;;6126967;23;20151;-42
2022/11/20 02:29:35;;;;;;;24.10;12.87;;;3.40;99.90;;;;;;6101683;23;20182;-39
2022/11/20 02:32:02;;;;;;;23.23;13.17;;;3.40;99.90;;;;;;6129074;23;20170;-40
2022/11/20 02:34:28;;;;;;;24.60;13.13;;;3.40;99.90;;;;;;6128299;23;20158;-44
2022/11/20 02:36:56;;;;;;;19.13;12.57;;;3.40;99.90;;;;;;6128012;23;20601;-46
2022/11/20 02:39:24;;;;;;;24.20;13.03;;;3.40;99.90;;;;;;6127812;23;20200;-45
2022/11/20 02:41:53;;;;;;;26.87;13.87;;;3.40;99.90;;;;;;6127680;23;20182;-47
2022/11/20 02:44:19;;;;;;;27.03;14.10;;;3.40;99.90;;;;;;6127861;23;20259;-44
2022/11/20 02:46:45;;;;;;;20.90;12.97;;;3.40;99.90;;;;;;6129801;23;20200;-45
2022/11/20 02:49:11;;;;;;;22.93;13.03;;;3.40;99.90;;;;;;6157284;23;20257;-45
2022/11/20 02:51:36;;;;;;;21.90;13.23;;;3.40;99.90;;;;;;6157351;23;20158;-45
2022/11/20 02:54:03;;;;;;;26.23;13.37;;;3.40;99.90;;;;;;6157185;23;20169;-46
2022/11/20 02:56:29;;;;;;;21.93;13.20;;;3.40;99.90;;;;;;6157488;23;20161;-47
2022/11/20 02:58:55;;;;;;;26.03;13.60;;;3.40;99.90;;;;;;6156964;23;20491;-45
2022/11/20 03:01:20;;;;;;;25.47;14.27;;;3.40;99.90;;;;;;6157036;23;20181;-47
2022/11/20 03:03:48;;;;;;;25.77;13.97;;;3.40;99.90;;;;;;6157070;23;20154;-46
2022/11/20 03:06:14;;;;;;;26.80;14.20;;;3.30;99.90;;;;;;6156943;23;20157;-46
2022/11/20 03:08:40;;;;;;;24.77;14.40;;;3.40;99.90;;;;;;6157582;23;20654;-46
2022/11/20 03:11:07;;;;;;;25.20;14.97;;;3.40;99.90;;;;;;6157823;23;20154;-46
2022/11/20 03:13:33;;;;;;;28.13;14.63;;;3.30;99.90;;;;;;6157052;23;20208;-48
2022/11/20 03:16:18;;;;;;;27.07;15.20;;;3.40;99.90;;;;;;6157264;23;20158;-45
2022/11/20 03:18:45;;;;;;;26.97;13.80;;;3.30;99.90;;;;;;6157256;23;20201;-47
2022/11/20 03:21:12;;;;;;;24.10;14.10;;;3.40;99.90;;;;;;6156812;23;20181;-45
2022/11/20 03:23:38;;;;;;;24.00;14.13;;;3.40;99.90;;;;;;6157079;23;20177;-46
2022/11/20 03:26:09;;;;;;;24.73;14.50;;;3.30;99.90;;;;;;6157371;23;20584;-45
2022/11/20 03:28:35;;;;;;;23.40;14.80;;;3.40;99.90;;;;;;6157027;23;20658;-46
2022/11/20 03:31:12;;;;;;;21.43;14.00;;;3.40;99.90;;;;;;6157991;23;20158;-46
2022/11/20 03:33:39;;;;;;;22.00;14.70;;;3.40;99.90;;;;;;6157300;23;20157;-46
2022/11/20 03:36:06;;;;;;;22.83;14.20;;;3.40;99.90;;;;;;6157477;23;20158;-47
2022/11/20 03:38:33;;;;;;;26.33;14.43;;;3.40;99.90;;;;;;6156388;23;20240;-44
2022/11/20 03:41:04;;;;;;;28.60;14.60;;;3.40;99.90;;;;;;6130696;23;20181;-44
2022/11/20 03:43:30;;;;;;;21.47;13.97;;;3.40;99.90;;;;;;6130734;23;20150;-43
2022/11/20 03:45:56;;;;;;;23.23;14.13;;;3.40;99.90;;;;;;6157025;23;20153;-44
2022/11/20 03:48:22;;;;;;;22.53;15.23;;;3.30;99.90;;;;;;6156690;23;20248;-45
2022/11/20 03:50:47;;;;;;;24.00;14.13;;;3.30;99.90;;;;;;6156901;23;20161;-47
2022/11/20 03:53:16;;;;;;;22.30;14.53;;;3.30;99.90;;;;;;6155768;23;20154;-44
2022/11/20 03:55:42;;;;;;;26.63;14.83;;;3.40;99.90;;;;;;6157157;23;20590;-44
2022/11/20 03:58:08;;;;;;;25.60;15.17;;;3.40;99.90;;;;;;6156947;23;20213;-45
2022/11/20 04:00:34;;;;;;;28.33;15.50;;;3.40;99.90;;;;;;6156805;23;20199;-47
2022/11/20 04:03:01;;;;;;;27.10;16.70;;;3.40;99.90;;;;;;6156587;23;20656;-44
2022/11/20 04:05:27;;;;;;;30.47;17.17;;;3.40;99.90;;;;;;6157061;23;20161;-46
2022/11/20 04:07:52;;;;;;;25.27;14.90;;;3.40;99.90;;;;;;6156567;23;20517;-46
2022/11/20 04:10:18;;;;;;;27.47;15.70;;;3.40;99.90;;;;;;6156605;23;20165;-45
2022/11/20 04:12:43;;;;;;;30.70;19.43;;;3.40;99.90;;;;;;6156979;23;20189;-47
2022/11/20 04:15:09;;;;;;;26.63;16.97;;;3.40;99.90;;;;;;6156902;23;20158;-44
2022/11/20 04:17:35;;;;;;;26.47;15.93;;;3.40;99.90;;;;;;6156455;23;20535;-46
2022/11/20 04:20:01;;;;;;;23.50;14.37;;;3.40;99.90;;;;;;6156599;23;20158;-43
2022/11/20 04:22:27;;;;;;;23.90;15.37;;;3.40;99.90;;;;;;6156454;23;20576;-46
2022/11/20 04:24:53;;;;;;;23.60;14.13;;;3.40;99.90;;;;;;6156412;23;20185;-45
2022/11/20 04:27:18;;;;;;;26.47;14.60;;;3.40;99.90;;;;;;6156456;23;20149;-46
2022/11/20 04:29:44;;;;;;;23.27;14.37;;;3.40;99.90;;;;;;6156443;23;20616;-45
2022/11/20 04:32:09;;;;;;;21.87;14.40;;;3.40;99.90;;;;;;6156643;23;20607;-47
2022/11/20 04:34:35;;;;;;;24.70;14.10;;;3.40;99.90;;;;;;6156830;23;20488;-44
2022/11/20 04:37:01;;;;;;;22.10;14.23;;;3.40;99.90;;;;;;6156738;23;20162;-44
2022/11/20 04:39:26;;;;;;;24.87;14.20;;;3.40;99.90;;;;;;6156709;23;20224;-46
2022/11/20 04:44:36;;;;;;;21.57;13.97;;;3.40;99.90;;;;;;6156783;23;20146;-44
2022/11/20 04:47:01;;;;;;;25.13;14.63;;;3.40;99.90;;;;;;6157014;23;20165;-44
2022/11/20 04:49:27;;;;;;;24.37;14.67;;;3.40;99.90;;;;;;6156840;23;20216;-47
2022/11/20 04:51:55;;;;;;;23.37;14.87;;;3.40;99.90;;;;;;6156176;23;20168;-44
2022/11/20 04:54:21;;;;;;;23.30;14.17;;;3.40;99.90;;;;;;6156916;23;20209;-45
2022/11/20 04:56:50;;;;;;;21.20;14.03;;;3.40;99.90;;;;;;6156390;23;20240;-46
2022/11/20 04:59:15;;;;;;;21.73;13.63;;;3.50;99.90;;;;;;6156535;23;20228;-45
2022/11/20 05:01:41;;;;;;;22.13;13.13;;;3.40;99.90;;;;;;6155849;23;20173;-47
2022/11/20 05:04:06;;;;;;;18.10;12.90;;;3.40;99.90;;;;;;6129664;23;20162;-43
2022/11/20 05:06:32;;;;;;;19.93;13.50;;;3.40;99.90;;;;;;6155812;23;20608;-45
2022/11/20 05:08:58;;;;;;;21.40;13.77;;;3.40;99.90;;;;;;6156053;23;20184;-45
2022/11/20 05:11:24;;;;;;;19.83;12.87;;;3.30;99.90;;;;;;6156294;23;20244;-41
2022/11/20 05:13:51;;;;;;;25.47;14.23;;;3.30;99.90;;;;;;6156001;23;20158;-41
2022/11/20 05:16:21;;;;;;;20.43;13.87;;;3.30;99.90;;;;;;6155939;23;20158;-41
2022/11/20 05:18:47;;;;;;;20.03;13.27;;;3.20;99.90;;;;;;6155933;23;20182;-41
2022/11/20 05:21:14;;;;;;;19.37;13.03;;;3.20;99.90;;;;;;6156942;23;20661;-42
2022/11/20 05:23:40;;;;;;;19.67;13.43;;;3.20;99.90;;;;;;6156048;23;20185;-41
2022/11/20 05:26:08;;;;;;;19.77;13.73;;;3.20;99.90;;;;;;6155984;23;20233;-40
2022/11/20 05:28:34;;;;;;;20.77;13.80;;;3.10;99.90;;;;;;6155876;23;20173;-41
2022/11/20 05:31:08;;;;;;;23.10;12.10;;;3.10;99.90;;;;;;6155899;23;20537;-43
2022/11/20 05:33:35;;;;;;;19.87;13.80;;;3.10;99.90;;;;;;6156216;23;20495;-44
2022/11/20 05:36:03;;;;;;;20.00;13.53;;;3.10;99.90;;;;;;6156152;23;20165;-41
2022/11/20 05:38:29;;;;;;;26.10;13.77;;;3.10;99.90;;;;;;6155784;23;20671;-41
2022/11/20 05:40:54;;;;;;;19.20;13.47;;;3.00;99.90;;;;;;6155860;23;20208;-41
2022/11/20 05:43:20;;;;;;;22.80;14.17;;;3.00;99.90;;;;;;6155856;23;20150;-39
2022/11/20 05:45:53;;;;;;;21.57;13.73;;;3.00;99.90;;;;;;6156075;23;20150;-42
2022/11/20 05:48:19;;;;;;;22.33;13.70;;;3.00;99.90;;;;;;6155669;23;20216;-41
2022/11/20 05:50:44;;;;;;;25.07;14.30;;;3.00;99.90;;;;;;6155716;23;20180;-40
2022/11/20 05:53:10;;;;;;;21.23;13.83;;;3.00;99.90;;;;;;6156047;23;20233;-41
2022/11/20 05:55:36;;;;;;;19.70;13.40;;;3.00;99.90;;;;;;6155651;23;20153;-39
2022/11/20 05:58:01;;;;;;;23.37;14.37;;;3.00;99.90;;;;;;6155796;23;20573;-38
2022/11/20 06:00:27;;;;;;;21.93;13.07;;;3.00;99.90;;;;;;6155947;23;20158;-40
2022/11/20 06:02:53;;;;;;;21.10;13.17;;;3.00;99.90;;;;;;6157598;23;20639;-38
2022/11/20 06:05:18;;;;;;;21.33;13.33;;;3.00;99.90;;;;;;6157597;23;20150;-41
2022/11/20 06:07:44;;;;;;;19.17;13.03;;;3.00;99.90;;;;;;6157494;23;20619;-39
2022/11/20 06:10:10;;;;;;;21.33;13.47;;;3.00;99.90;;;;;;6157556;23;20593;-40
2022/11/20 06:12:36;;;;;;;22.90;13.83;;;3.00;99.90;;;;;;6155930;23;20216;-40
2022/11/20 06:15:02;;;;;;;22.87;12.67;;;3.00;99.90;;;;;;6157423;23;20526;-38
2022/11/20 06:17:28;;;;;;;18.90;13.03;;;3.00;99.90;;;;;;6157728;23;20588;-39
2022/11/20 06:19:54;;;;;;;20.37;13.23;;;3.00;99.90;;;;;;6157328;23;20165;-40
2022/11/20 06:22:20;;;;;;;18.33;12.53;;;3.00;99.90;;;;;;6155967;23;20628;-40
2022/11/20 06:24:45;;;;;;;19.53;12.83;;;3.00;99.90;;;;;;6157454;23;20584;-38
2022/11/20 06:27:11;;;;;;;20.20;13.17;;;3.00;99.90;;;;;;6157584;23;20161;-42
2022/11/20 06:29:37;;;;;;;23.47;14.57;;;3.10;99.90;;;;;;6157238;23;20170;-39
2022/11/20 06:32:03;;;;;;;20.37;13.60;;;3.10;99.90;;;;;;6157631;23;20221;-40
2022/11/20 06:34:29;;;;;;;20.37;14.17;;;3.10;99.90;;;;;;6157043;23;20165;-42
2022/11/20 06:36:55;;;;;;;24.13;14.53;;;3.10;99.90;;;;;;6157697;23;20157;-40
2022/11/20 06:39:21;;;;;;;20.00;13.87;;;3.10;99.90;;;;;;6155600;23;20186;-42
2022/11/20 06:41:46;;;;;;;22.90;14.80;;;3.10;99.90;;;;;;6157726;23;20489;-41
2022/11/20 06:44:12;;;;;;;20.23;13.60;;;3.20;99.90;;;;;;6157841;23;20146;-40
2022/11/20 06:46:37;;;;;;;19.27;13.40;;;3.20;99.90;;;;;;6157305;23;20480;-42
2022/11/20 06:51:54;;;;;;;21.97;13.63;;;3.20;99.90;;;;;;6159241;23;20512;-48
2022/11/20 06:54:19;;;;;;;19.13;12.83;;;3.10;99.90;;;;;;6158918;23;20157;-49
2022/11/20 06:56:48;;;;;;;20.30;13.53;;;3.20;99.90;;;;;;6158742;23;20489;-48
2022/11/20 06:59:14;;;;;;;20.80;13.50;;;3.20;99.90;;;;;;6158480;23;20256;-48
2022/11/20 07:01:39;;;;;;;18.77;13.20;;;3.20;99.90;;;;;;6158286;23;20279;-50
2022/11/20 07:04:05;;;;;;;23.13;14.30;;;3.30;99.90;;;;;;6158546;23;20281;-49
2022/11/20 07:06:31;;;;;;;20.83;13.60;;;3.30;99.90;;;;;;6158506;23;20154;-49
2022/11/20 07:08:57;;;;;;;21.47;13.93;;;3.30;99.90;;;;;;6158847;23;20208;-49
2022/11/20 07:11:23;;;;;;;28.47;14.53;;;3.30;99.90;;;;;;6159287;23;20663;-49
2022/11/20 07:13:49;;;;;;;23.93;14.00;;;3.20;99.90;;;;;;6158451;23;20157;-49
2022/11/20 07:16:15;;;;;;;21.53;14.17;;;3.20;99.90;;;;;;6159018;23;20158;-49
2022/11/20 07:18:40;;;;;;;22.80;13.13;;;3.20;99.90;;;;;;6158994;23;20178;-49
2022/11/20 07:21:08;;;;;;;21.47;12.97;;;3.20;99.90;;;;;;6158511;23;20181;-49
2022/11/20 07:23:34;;;;;;;24.97;14.23;;;3.20;99.90;;;;;;6158517;23;20162;-50
2022/11/20 07:26:07;;;;;;;25.37;15.77;;;3.20;99.90;;;;;;6158703;23;20184;-49
2022/11/20 07:28:33;;;;;;;27.63;15.03;;;3.20;99.90;;;;;;6158780;23;20177;-48
2022/11/20 07:30:58;;;;;;;30.80;15.40;;;3.20;99.90;;;;;;6158636;23;20165;-49
2022/11/20 07:33:24;;;;;;;26.07;14.97;;;3.20;99.90;;;;;;6156987;23;20165;-49
2022/11/20 07:35:50;;;;;;;31.53;17.03;;;3.30;99.90;;;;;;6158295;23;20208;-49
2022/11/20 07:38:15;;;;;;;39.27;17.53;;;3.30;99.90;;;;;;6157615;23;20264;-49
2022/11/20 07:40:41;;;;;;;45.00;19.00;;;3.30;99.90;;;;;;6158076;23;20200;-49
2022/11/20 07:43:06;;;;;;;36.83;17.00;;;3.30;99.90;;;;;;6157989;23;20162;-49
2022/11/20 07:45:32;;;;;;;38.60;18.50;;;3.30;99.90;;;;;;6158816;23;20157;-48
2022/11/20 07:47:57;;;;;;;35.97;18.37;;;3.30;99.90;;;;;;6158757;23;20200;-50
2022/11/20 07:50:23;;;;;;;38.80;19.27;;;3.30;99.90;;;;;;6158457;23;20574;-49
2022/11/20 07:52:48;;;;;;;44.17;19.93;;;3.30;99.90;;;;;;6158353;23;20489;-48
2022/11/20 07:55:15;;;;;;;41.53;19.77;;;3.40;99.90;;;;;;6158268;23;20149;-49
2022/11/20 07:57:40;;;;;;;39.57;18.70;;;3.40;99.90;;;;;;6158384;23;20158;-49
2022/11/20 08:00:11;;;;;;;47.03;20.83;;;3.40;99.90;;;;;;6158638;23;20164;-49
2022/11/20 08:02:40;;;;;;;42.20;19.20;;;3.40;99.90;;;;;;6158751;23;20600;-49
2022/11/20 08:05:07;;;;;;;47.40;20.07;;;3.40;99.90;;;;;;6158187;23;20150;-49
2022/11/20 08:07:38;;;;;;;45.83;19.80;;;3.50;99.90;;;;;;6158424;23;20146;-49
2022/11/20 08:10:04;;;;;;;47.60;20.90;;;3.50;99.90;;;;;;6158171;23;20157;-49
2022/11/20 08:15:13;;;;;;;44.23;19.87;;;3.50;99.90;;;;;;6158675;23;20550;-48
2022/11/20 08:17:39;;;;;;;42.13;20.33;;;3.50;99.90;;;;;;6158134;23;20181;-49
2022/11/20 08:20:04;;;;;;;42.60;18.50;;;3.50;99.90;;;;;;6158170;23;20162;-49
2022/11/20 08:22:30;;;;;;;48.37;19.90;;;3.60;99.90;;;;;;6158670;23;20285;-48
2022/11/20 08:24:56;;;;;;;50.77;21.00;;;3.60;99.90;;;;;;6157887;23;20153;-49
2022/11/20 08:27:21;;;;;;;47.10;20.63;;;3.70;99.90;;;;;;6158634;23;20158;-48
2022/11/20 08:29:47;;;;;;;39.00;18.60;;;3.70;99.90;;;;;;6158286;23;20193;-48
2022/11/20 08:32:12;;;;;;;39.27;19.13;;;3.70;99.90;;;;;;6158458;23;20667;-48
2022/11/20 08:34:38;;;;;;;45.80;21.30;;;3.70;99.90;;;;;;6158153;23;20616;-48
2022/11/20 08:37:03;;;;;;;39.40;19.00;;;3.80;99.90;;;;;;6158117;23;20158;-49
2022/11/20 08:39:29;;;;;;;40.80;20.37;;;3.80;99.90;;;;;;6158157;23;20232;-50
2022/11/20 08:41:54;;;;;;;38.17;18.63;;;3.80;99.90;;;;;;6158031;23;20189;-49
2022/11/20 08:44:20;;;;;;;35.03;18.07;;;3.80;99.90;;;;;;6158705;23;20154;-49
2022/11/20 08:46:46;;;;;;;38.63;16.23;;;3.80;99.90;;;;;;6158637;23;20150;-49
2022/11/20 08:49:13;;;;;;;34.63;17.07;;;3.80;99.90;;;;;;6158780;23;20522;-49
2022/11/20 08:51:40;;;;;;;36.33;17.07;;;3.80;99.90;;;;;;6157968;23;20266;-49
2022/11/20 08:54:06;;;;;;;38.03;17.70;;;3.90;99.90;;;;;;6158221;23;20154;-49
2022/11/20 08:56:32;;;;;;;37.60;17.43;;;3.90;99.90;;;;;;6158295;23;20161;-48
2022/11/20 08:59:01;;;;;;;33.87;17.63;;;3.90;99.90;;;;;;6158262;23;20179;-48
2022/11/20 09:01:27;;;;;;;38.53;17.50;;;4.00;99.90;;;;;;6158055;23;20181;-48
2022/11/20 09:03:56;;;;;;;34.93;16.43;;;4.00;99.90;;;;;;6158007;23;20162;-49
2022/11/20 09:06:22;;;;;;;35.47;18.77;;;4.10;99.90;;;;;;6157644;23;20158;-49
2022/11/20 09:08:52;;;;;;;41.53;18.17;;;4.10;99.90;;;;;;6157859;23;20181;-49
2022/11/20 09:11:17;;;;;;;36.93;18.37;;;4.20;99.90;;;;;;6157724;23;20158;-47
2022/11/20 09:13:43;;;;;;;33.30;18.03;;;4.30;99.90;;;;;;6157565;23;20162;-49
2022/11/20 09:16:08;;;;;;;36.20;17.73;;;4.30;99.90;;;;;;6157281;23;20159;-50
2022/11/20 09:18:37;;;;;;;39.07;17.70;;;4.50;99.90;;;;;;6157319;23;20250;-49
2022/11/20 09:21:04;;;;;;;29.13;16.33;;;4.50;99.90;;;;;;6157380;23;20515;-48
2022/11/20 09:23:35;;;;;;;39.63;18.30;;;4.60;99.90;;;;;;6157097;23;20517;-49
2022/11/20 09:26:05;;;;;;;34.50;17.77;;;4.70;99.90;;;;;;6156923;23;20178;-49
2022/11/20 09:28:32;;;;;;;30.63;16.63;;;4.80;99.90;;;;;;6156450;23;20234;-49
2022/11/20 09:30:57;;;;;;;29.93;16.70;;;4.80;99.90;;;;;;6156922;23;20166;-48
2022/11/20 09:33:23;;;;;;;28.07;15.80;;;4.90;99.90;;;;;;6156083;23;20494;-50
2022/11/20 09:35:49;;;;;;;31.13;15.80;;;4.90;99.90;;;;;;6157329;23;20160;-48
2022/11/20 09:38:14;;;;;;;29.83;15.90;;;4.90;99.90;;;;;;6158563;23;20186;-48
2022/11/20 09:40:48;;;;;;;31.30;15.63;;;4.90;99.90;;;;;;6158904;23;20157;-49
2022/11/20 09:43:56;;;;;;;26.97;14.87;;;5.00;99.90;;;;;;6158494;23;20587;-50
2022/11/20 09:46:38;;;;;;;27.80;15.37;;;5.10;99.90;;;;;;6159120;23;20149;-49
2022/11/20 09:49:53;;;;;;;25.70;14.80;;;5.10;99.90;;;;;;6158250;23;20192;-49
2022/11/20 09:52:21;;;;;;;27.80;14.00;;;5.10;99.90;;;;;;6053638;23;20312;-49
2022/11/20 09:54:47;;;;;;;22.97;14.00;;;5.20;99.90;;;;;;6158823;23;20150;-49
2022/11/20 09:57:18;;;;;;;25.33;14.20;;;5.20;99.90;;;;;;6158189;23;20591;-50
2022/11/20 09:59:50;;;;;;;25.00;13.50;;;5.20;99.90;;;;;;6158493;23;20570;-49
2022/11/20 10:02:29;;;;;;;28.60;15.60;;;5.20;99.90;;;;;;6156774;23;20218;-49
2022/11/20 10:05:09;;;;;;;26.23;14.67;;;5.30;99.90;;;;;;6157861;23;20152;-50
2022/11/20 10:07:44;;;;;;;26.73;14.70;;;5.30;99.90;;;;;;6157699;23;20144;-48
2022/11/20 10:10:21;;;;;;;28.93;14.80;;;5.30;99.90;;;;;;6158037;23;20600;-49
2022/11/20 10:13:02;;;;;;;24.77;14.13;;;5.40;99.90;;;;;;6158205;23;20282;-49
2022/11/20 10:15:36;;;;;;;28.77;15.33;;;5.40;99.90;;;;;;6157981;23;20151;-49
2022/11/20 10:18:18;;;;;;;23.07;14.43;;;5.50;99.90;;;;;;6157385;23;20228;-48
2022/11/20 10:20:48;;;;;;;22.93;14.70;;;5.50;99.90;;;;;;6157749;23;20151;-49
2022/11/20 10:23:19;;;;;;;26.60;13.93;;;5.50;99.90;;;;;;6157567;23;20144;-50
2022/11/20 10:25:56;;;;;;;26.60;14.80;;;5.60;99.90;;;;;;6157780;23;20165;-50
2022/11/20 10:28:49;;;;;;;21.87;13.73;;;5.60;99.90;;;;;;6157192;23;20175;-49
2022/11/20 10:31:41;;;;;;;25.10;13.40;;;5.60;99.90;;;;;;6157420;23;20158;-50
2022/11/20 10:34:23;;;;;;;26.63;14.00;;;5.70;99.90;;;;;;6157470;23;20584;-49
2022/11/20 10:37:03;;;;;;;25.53;14.23;;;5.70;99.90;;;;;;6157767;23;20146;-49
2022/11/20 10:39:54;;;;;;;25.97;14.77;;;5.70;99.90;;;;;;6157628;23;20183;-49
2022/11/20 10:42:46;;;;;;;28.87;15.07;;;5.70;99.90;;;;;;6157254;23;20518;-49
2022/11/20 10:45:19;;;;;;;26.83;14.37;;;5.70;99.90;;;;;;6157410;23;20187;-50
2022/11/20 10:47:45;;;;;;;24.20;14.57;;;5.70;99.90;;;;;;6157245;23;20548;-49
2022/11/20 10:50:14;;;;;;;26.37;15.37;;;5.70;99.90;;;;;;6156738;23;20168;-50
2022/11/20 10:52:58;;;;;;;27.13;15.43;;;5.70;99.90;;;;;;6157479;23;20166;-50
2022/11/20 10:55:39;;;;;;;25.13;14.77;;;5.70;99.90;;;;;;6157502;23;20189;-50
2022/11/20 10:58:11;;;;;;;27.80;15.07;;;5.70;99.90;;;;;;6157191;23;20179;-49
2022/11/20 11:00:36;;;;;;;22.03;14.17;;;5.80;99.90;;;;;;6157394;23;20169;-49
2022/11/20 11:03:02;;;;;;;25.97;14.37;;;5.80;99.90;;;;;;6157141;23;20165;-49
2022/11/20 11:05:50;;;;;;;33.03;14.73;;;5.90;99.90;;;;;;6157341;23;20157;-50
2022/11/20 11:08:18;;;;;;;27.00;14.60;;;5.90;99.90;;;;;;6157414;23;20638;-50
2022/11/20 11:10:54;;;;;;;26.03;14.87;;;5.90;99.90;;;;;;6157351;23;20240;-50
2022/11/20 11:13:25;;;;;;;23.20;13.53;;;5.90;99.90;;;;;;6156351;23;20141;-49
2022/11/20 11:15:51;;;;;;;25.87;15.40;;;6.00;99.90;;;;;;6156701;23;20181;-49
2022/11/20 11:18:31;;;;;;;25.80;15.13;;;6.00;99.90;;;;;;6156634;23;20177;-49
2022/11/20 11:21:03;;;;;;;24.73;15.27;;;6.00;99.90;;;;;;6156573;23;20700;-49
2022/11/20 11:23:38;;;;;;;24.33;15.07;;;6.00;99.90;;;;;;6157120;23;20145;-49
2022/11/20 11:26:06;;;;;;;26.60;16.83;;;6.10;99.90;;;;;;6157277;23;20145;-50
2022/11/20 11:28:33;;;;;;;27.33;15.63;;;6.10;99.90;;;;;;6157065;23;20181;-50
2022/11/20 11:30:58;;;;;;;29.33;15.03;;;6.20;99.90;;;;;;6157129;23;20192;-49
2022/11/20 11:33:26;;;;;;;26.67;15.90;;;6.10;99.90;;;;;;6156864;23;20502;-50
2022/11/20 11:35:57;;;;;;;28.93;15.30;;;6.10;99.90;;;;;;6156812;23;20167;-49
2022/11/20 11:38:28;;;;;;;25.27;14.17;;;6.10;99.90;;;;;;6157066;23;20242;-50
2022/11/20 11:40:55;;;;;;;27.27;14.33;;;6.10;99.90;;;;;;6156772;23;20695;-50
2022/11/20 11:46:28;;;;;;;24.73;14.43;;;6.10;99.90;;;;;;6157121;23;20202;-51
2022/11/20 11:48:58;;;;;;;25.43;14.83;;;6.10;99.90;;;;;;6156924;23;20180;-50
2022/11/20 11:51:32;;;;;;;25.90;15.27;;;6.10;99.90;;;;;;6156566;23;20188;-49
2022/11/20 11:54:00;;;;;;;25.97;15.77;;;6.10;99.90;;;;;;6157352;23;20145;-48
2022/11/20 11:56:28;;;;;;;25.43;16.10;;;6.10;99.90;;;;;;6156717;23;20492;-47
2022/11/20 11:58:59;;;;;;;28.93;16.40;;;6.10;99.90;;;;;;6156033;23;20662;-49
2022/11/20 12:01:54;;;;;;;25.87;15.40;;;6.10;99.90;;;;;;6156871;23;20229;-49
2022/11/20 12:04:54;;;;;;;21.43;12.63;;;6.10;99.90;;;;;;6154014;23;20165;-49
2022/11/20 12:07:28;;;;;;;24.60;14.43;;;6.10;99.90;;;;;;6156922;23;20138;-49
2022/11/20 12:09:57;;;;;;;22.27;14.33;;;6.20;99.90;;;;;;6156879;23;20152;-48
2022/11/20 12:12:30;;;;;;;26.90;15.07;;;6.20;99.90;;;;;;6156700;23;20232;-48
2022/11/20 12:14:57;;;;;;;24.67;14.77;;;6.20;99.90;;;;;;6156769;23;20173;-50
2022/11/20 12:17:24;;;;;;;26.50;15.07;;;6.20;99.90;;;;;;6156695;23;20168;-46
2022/11/20 12:19:49;;;;;;;26.03;15.47;;;6.10;99.90;;;;;;6156393;23;20607;-49
2022/11/20 12:22:34;;;;;;;28.53;15.70;;;6.20;99.90;;;;;;6156222;23;20196;-48
2022/11/20 12:25:26;;;;;;;26.03;15.47;;;6.20;99.90;;;;;;6156838;23;20153;-49
2022/11/20 12:28:09;;;;;;;31.47;16.50;;;6.20;99.90;;;;;;6150784;23;20185;-48
2022/11/20 12:31:03;;;;;;;29.47;15.73;;;6.20;99.90;;;;;;5091998;28;20605;-48
2022/11/20 12:33:57;;;;;;;30.73;15.43;;;6.20;99.90;;;;;;5091330;28;20172;-49
2022/11/20 12:36:57;;;;;;;31.73;15.37;;;6.30;99.90;;;;;;5090971;28;20163;-47
2022/11/20 12:39:28;;;;;;;35.63;19.77;;;6.40;99.90;;;;;;5086538;28;20207;-48
2022/11/20 12:45:10;;;;;;;30.93;16.93;;;6.40;99.90;;;;;;5090748;28;20194;-49
2022/11/20 12:47:59;;;;;;;33.53;17.27;;;6.40;99.90;;;;;;5090644;28;20289;-49
2022/11/20 12:50:51;;;;;;;25.90;15.10;;;6.40;99.90;;;;;;5090700;28;20195;-49
2022/11/20 12:53:25;;;;;;;34.43;17.23;;;6.40;99.90;;;;;;5089314;28;20180;-49
2022/11/20 12:56:28;;;;;;;28.27;16.87;;;6.40;99.90;;;;;;5091189;28;20189;-49
2022/11/20 12:59:02;;;;;;;30.47;18.07;;;6.40;99.90;;;;;;5086192;28;20555;-48
2022/11/20 13:01:44;;;;;;;29.27;18.00;;;6.40;99.90;;;;;;5090656;28;20185;-48
2022/11/20 13:04:37;;;;;;;29.07;16.27;;;6.40;99.90;;;;;;5090912;28;20611;-49
2022/11/20 13:07:09;;;;;;;27.50;15.77;;;6.40;99.90;;;;;;5090322;28;20202;-49